Time;durP1;ratioP1;P1;durP2;ratioP2;P2;SDS_P1;SDS_P2;PMS_P1;PMS_P2;Temp;Humidity;BMP_temperature;BMP_pressure;BME280_temperature;BME280_humidity;BME280_pressure;Samples;Min_cycle;Max_cycle;Signal;HPM_P1;HPM_P2
2023/04/12 00:00:23;;;;;;;8.10;4.23;;;2.50;99.90;;;;;;8289163;28;20219;-71
2023/04/12 00:04:26;;;;;;;8.97;4.43;;;2.40;99.90;;;;;;8288904;28;20211;-70
2023/04/12 00:08:32;;;;;;;6.63;4.80;;;2.50;99.90;;;;;;8283169;28;20191;-70
2023/04/12 00:12:35;;;;;;;6.77;4.67;;;2.50;99.90;;;;;;8291934;28;20192;-71
2023/04/12 00:16:37;;;;;;;8.77;4.90;;;2.50;99.90;;;;;;8290101;28;20222;-71
2023/04/12 00:20:38;;;;;;;6.73;4.27;;;2.50;99.90;;;;;;8290706;28;20237;-72
2023/04/12 00:24:40;;;;;;;10.87;4.47;;;2.50;99.90;;;;;;8290836;28;20210;-71
2023/04/12 00:28:47;;;;;;;6.57;4.20;;;2.40;99.90;;;;;;8287919;28;20215;-70
2023/04/12 00:32:52;;;;;;;7.17;4.23;;;2.40;99.90;;;;;;8284988;28;20191;-70
2023/04/12 00:36:53;;;;;;;5.87;4.20;;;2.30;99.90;;;;;;8293737;28;20191;-71
2023/04/12 00:40:55;;;;;;;8.80;5.17;;;2.30;99.90;;;;;;8300432;28;20187;-70
2023/04/12 00:44:55;;;;;;;8.03;5.97;;;2.20;99.90;;;;;;8292024;28;20202;-71
2023/04/12 00:48:58;;;;;;;10.23;5.97;;;2.20;99.90;;;;;;8290508;28;20187;-71
2023/04/12 00:53:25;;;;;;;17.10;10.17;;;2.20;99.90;;;;;;8282583;28;20190;-71
2023/04/12 00:57:26;;;;;;;16.17;10.60;;;2.10;99.90;;;;;;8260991;28;20288;-72
2023/04/12 01:01:27;;;;;;;13.27;10.47;;;2.00;99.90;;;;;;8288895;28;20201;-71
2023/04/12 01:05:28;;;;;;;12.93;9.27;;;2.00;99.90;;;;;;8288553;28;20209;-70
2023/04/12 01:10:09;;;;;;;11.73;9.17;;;2.00;99.90;;;;;;8287668;28;20182;-70
2023/04/12 01:14:32;;;;;;;15.90;9.30;;;2.00;99.90;;;;;;8273489;28;20321;-71
2023/04/12 01:18:40;;;;;;;17.53;10.07;;;2.00;99.90;;;;;;8288046;28;20186;-70
2023/04/12 01:23:05;;;;;;;13.73;9.13;;;2.00;99.90;;;;;;8288744;28;20191;-71
2023/04/12 01:27:12;;;;;;;12.23;7.67;;;1.90;99.90;;;;;;8292183;28;20229;-69
2023/04/12 01:31:14;;;;;;;10.87;7.03;;;1.90;99.90;;;;;;8299822;28;20246;-70
2023/04/12 01:35:32;;;;;;;11.20;7.03;;;1.80;99.90;;;;;;8292208;28;20206;-69
2023/04/12 01:39:33;;;;;;;8.13;5.60;;;1.80;99.90;;;;;;8290541;28;20198;-71
2023/04/12 01:43:43;;;;;;;8.20;5.23;;;1.80;99.90;;;;;;8299894;28;20245;-71
2023/04/12 01:47:44;;;;;;;7.73;5.07;;;1.80;99.90;;;;;;8294187;28;20334;-71
2023/04/12 01:51:48;;;;;;;7.17;4.17;;;1.60;99.90;;;;;;8295791;28;20179;-70
2023/04/12 01:55:57;;;;;;;5.03;3.53;;;1.50;99.90;;;;;;8295841;28;20217;-71
2023/04/12 02:00:06;;;;;;;5.10;3.83;;;1.50;99.90;;;;;;8295822;28;20195;-71
2023/04/12 02:04:09;;;;;;;3.93;3.47;;;1.30;99.90;;;;;;8295974;28;20194;-71
2023/04/12 02:08:15;;;;;;;6.13;3.93;;;1.20;99.90;;;;;;8293807;28;20190;-70
2023/04/12 02:12:17;;;;;;;5.67;3.80;;;1.20;99.90;;;;;;8292933;28;20178;-71
2023/04/12 02:16:19;;;;;;;5.50;4.07;;;1.20;99.90;;;;;;8294955;28;20209;-70
2023/04/12 02:20:23;;;;;;;6.13;3.90;;;1.20;99.90;;;;;;8302564;28;20187;-69
2023/04/12 02:24:27;;;;;;;4.67;3.43;;;1.10;99.90;;;;;;8301273;28;20266;-69
2023/04/12 02:28:28;;;;;;;7.53;3.17;;;1.00;99.90;;;;;;8299836;28;20183;-70
2023/04/12 02:32:31;;;;;;;5.10;3.50;;;0.90;99.90;;;;;;8299281;28;20197;-68
2023/04/12 02:36:33;;;;;;;7.93;3.60;;;0.90;99.90;;;;;;8297211;28;20287;-68
2023/04/12 02:40:41;;;;;;;6.20;4.03;;;0.90;99.90;;;;;;8301365;28;20220;-69
2023/04/12 02:44:46;;;;;;;7.40;4.50;;;0.90;99.90;;;;;;8292920;28;20293;-68
2023/04/12 02:48:47;;;;;;;8.53;5.30;;;0.90;99.90;;;;;;8297753;28;20286;-69
2023/04/12 02:52:48;;;;;;;9.33;4.90;;;0.90;99.90;;;;;;8299533;28;20244;-68
2023/04/12 02:56:52;;;;;;;7.70;5.10;;;0.80;99.90;;;;;;8297010;28;20313;-68
2023/04/12 03:00:53;;;;;;;6.87;4.73;;;0.80;99.90;;;;;;8298425;28;20248;-68
2023/04/12 03:04:55;;;;;;;7.10;4.77;;;0.80;99.90;;;;;;8295146;28;20246;-68
2023/04/12 03:09:00;;;;;;;8.23;4.43;;;0.80;99.90;;;;;;8299662;28;20184;-69
2023/04/12 03:13:10;;;;;;;6.60;4.70;;;0.80;99.90;;;;;;8296990;28;20183;-69
2023/04/12 03:17:10;;;;;;;13.67;8.60;;;0.70;99.90;;;;;;8301348;28;20199;-68
2023/04/12 03:21:11;;;;;;;8.50;6.53;;;0.70;99.90;;;;;;8303717;28;20315;-69
2023/04/12 03:25:12;;;;;;;9.93;7.40;;;0.60;99.90;;;;;;8301219;28;20245;-68
2023/04/12 03:29:13;;;;;;;12.37;8.97;;;0.60;99.90;;;;;;8301715;28;20187;-68
2023/04/12 03:33:14;;;;;;;12.53;7.70;;;0.60;99.90;;;;;;8298837;28;20191;-69
2023/04/12 03:37:15;;;;;;;9.40;7.03;;;0.50;99.90;;;;;;8297997;28;20202;-68
2023/04/12 03:41:16;;;;;;;9.40;6.57;;;0.40;99.90;;;;;;8295122;28;20194;-69
2023/04/12 03:45:17;;;;;;;8.90;5.63;;;0.20;99.90;;;;;;8302510;28;20205;-69
2023/04/12 03:49:18;;;;;;;8.80;6.17;;;0.10;99.90;;;;;;8298571;28;20195;-68
2023/04/12 03:53:19;;;;;;;10.30;7.20;;;0.20;99.90;;;;;;8297920;28;20198;-69
2023/04/12 03:57:35;;;;;;;23.50;15.10;;;0.10;99.90;;;;;;8295436;28;20364;-68
2023/04/12 04:01:37;;;;;;;24.93;13.43;;;0.10;99.90;;;;;;8304220;28;20282;-69
2023/04/12 04:05:38;;;;;;;25.27;12.87;;;0.00;99.90;;;;;;8297688;28;20215;-69
2023/04/12 04:09:40;;;;;;;26.53;14.30;;;-0.10;99.90;;;;;;8297134;28;20191;-69
2023/04/12 04:13:45;;;;;;;17.13;9.90;;;-0.20;99.90;;;;;;8298545;28;20249;-70
2023/04/12 04:17:47;;;;;;;10.57;6.30;;;-0.30;99.90;;;;;;8297941;28;20236;-69
2023/04/12 04:21:48;;;;;;;10.47;5.87;;;-0.50;99.90;;;;;;8303141;28;20244;-69
2023/04/12 04:25:52;;;;;;;10.67;5.50;;;-0.50;99.90;;;;;;8297174;28;20218;-69
2023/04/12 04:29:53;;;;;;;11.93;6.60;;;-0.40;99.90;;;;;;8295798;28;20225;-69
2023/04/12 04:33:54;;;;;;;9.80;5.20;;;-0.30;99.90;;;;;;8292976;28;20284;-69
2023/04/12 04:37:55;;;;;;;6.97;5.07;;;0.00;99.90;;;;;;8292599;28;20297;-69
2023/04/12 04:41:56;;;;;;;6.43;5.00;;;0.30;99.90;;;;;;8292149;28;20199;-69
2023/04/12 04:46:01;;;;;;;13.97;7.40;;;0.60;99.90;;;;;;8293924;28;20214;-69
2023/04/12 04:50:02;;;;;;;14.73;7.40;;;0.90;99.90;;;;;;8291821;28;20280;-69
2023/04/12 04:54:03;;;;;;;14.23;7.73;;;0.90;99.90;;;;;;8291544;28;20183;-70
2023/04/12 04:58:05;;;;;;;11.43;6.50;;;0.90;99.90;;;;;;8292203;28;20221;-70
2023/04/12 05:02:06;;;;;;;8.00;6.27;;;0.90;99.90;;;;;;8288867;28;20186;-70
2023/04/12 05:06:08;;;;;;;15.30;9.13;;;1.00;99.90;;;;;;8256911;28;20309;-68
2023/04/12 05:10:10;;;;;;;23.83;14.13;;;1.00;99.90;;;;;;8293823;28;20191;-68
2023/04/12 05:14:17;;;;;;;15.30;10.57;;;1.10;99.90;;;;;;8289244;28;20194;-67
2023/04/12 05:18:18;;;;;;;20.97;8.97;;;1.20;99.90;;;;;;8295459;28;20193;-69
2023/04/12 05:22:21;;;;;;;15.10;8.83;;;1.30;99.90;;;;;;8293223;28;20187;-67
2023/04/12 05:26:23;;;;;;;19.40;11.40;;;1.50;99.90;;;;;;8302759;28;20221;-67
2023/04/12 05:30:24;;;;;;;16.37;11.57;;;1.60;99.90;;;;;;8308129;28;20198;-67
2023/04/12 05:34:37;;;;;;;17.23;9.50;;;1.80;99.90;;;;;;8292206;28;20195;-68
2023/04/12 05:38:37;;;;;;;16.20;10.10;;;2.00;99.90;;;;;;8292886;28;20346;-67
2023/04/12 05:42:39;;;;;;;15.90;9.50;;;2.10;99.90;;;;;;8287404;28;20198;-67
2023/04/12 05:46:40;;;;;;;13.10;8.00;;;2.30;99.90;;;;;;8287871;28;20226;-67
2023/04/12 05:50:41;;;;;;;13.87;7.23;;;2.50;99.90;;;;;;8290197;28;20265;-69
2023/04/12 05:54:42;;;;;;;8.77;6.73;;;2.80;99.90;;;;;;8282990;28;20241;-70
2023/04/12 05:58:47;;;;;;;11.90;7.80;;;3.10;99.90;;;;;;8280827;28;20312;-70
2023/04/12 06:02:49;;;;;;;9.23;6.57;;;3.30;99.90;;;;;;8281711;28;20206;-70
2023/04/12 06:06:50;;;;;;;10.23;6.90;;;3.60;99.90;;;;;;8280264;28;20215;-70
2023/04/12 06:10:54;;;;;;;12.53;7.60;;;3.80;99.90;;;;;;8279772;28;20201;-69
2023/04/12 06:14:55;;;;;;;11.97;7.53;;;4.00;99.90;;;;;;8285747;28;20191;-69
2023/04/12 06:18:56;;;;;;;13.77;7.47;;;4.20;99.90;;;;;;8298779;28;20202;-68
2023/04/12 06:22:57;;;;;;;9.80;7.37;;;4.40;99.90;;;;;;8268437;28;20231;-70
2023/04/12 06:26:58;;;;;;;11.00;7.00;;;4.60;99.90;;;;;;8233013;28;20243;-70
2023/04/12 06:30:59;;;;;;;12.93;6.67;;;4.80;99.90;;;;;;8267349;28;20262;-68
2023/04/12 06:35:00;;;;;;;9.07;6.57;;;5.00;99.90;;;;;;8292912;28;20182;-69
2023/04/12 06:39:04;;;;;;;9.10;5.70;;;5.20;99.90;;;;;;8293889;28;20187;-72
2023/04/12 06:43:05;;;;;;;7.00;5.10;;;5.40;99.90;;;;;;8293870;28;20182;-71
2023/04/12 06:47:06;;;;;;;11.17;5.40;;;5.60;99.90;;;;;;8292020;28;20301;-70
2023/04/12 06:51:07;;;;;;;11.07;5.87;;;5.80;99.90;;;;;;8298587;28;20193;-70
2023/04/12 06:55:32;;;;;;;8.23;5.43;;;6.00;99.90;;;;;;8295911;28;20210;-71
2023/04/12 06:59:42;;;;;;;7.10;4.40;;;6.30;99.90;;;;;;8282218;28;20234;-72
2023/04/12 07:03:43;;;;;;;7.03;4.07;;;6.70;99.90;;;;;;8306603;28;20314;-72
2023/04/12 07:07:47;;;;;;;7.43;3.97;;;7.00;99.90;;;;;;8267768;28;20246;-70
2023/04/12 07:11:48;;;;;;;5.50;2.93;;;7.40;99.90;;;;;;8259352;28;20188;-72
2023/04/12 07:15:55;;;;;;;6.70;2.93;;;7.60;99.90;;;;;;8265799;28;20202;-73
2023/04/12 07:20:06;;;;;;;5.83;2.83;;;7.80;99.90;;;;;;8278627;28;20286;-72
2023/04/12 07:24:09;;;;;;;4.77;2.77;;;7.90;99.90;;;;;;8264856;28;20237;-72
2023/04/12 07:28:10;;;;;;;7.50;2.83;;;7.90;1.00;;;;;;8263483;28;20278;-71
2023/04/12 07:32:11;;;;;;;6.67;2.40;;;8.00;1.00;;;;;;8263498;28;20186;-73
2023/04/12 07:36:15;;;;;;;6.60;3.27;;;8.10;1.00;;;;;;8275758;28;20207;-73
2023/04/12 07:40:15;;;;;;;5.57;2.57;;;8.20;99.90;;;;;;8259890;28;20195;-72
2023/04/12 07:44:17;;;;;;;4.73;2.70;;;8.30;99.90;;;;;;8269382;28;20198;-71
2023/04/12 07:48:17;;;;;;;3.90;2.70;;;8.50;99.90;;;;;;8251519;28;20221;-70
2023/04/12 07:52:21;;;;;;;3.13;2.23;;;8.70;99.90;;;;;;8255745;28;20187;-70
2023/04/12 07:56:23;;;;;;;4.73;2.10;;;8.90;99.90;;;;;;8253688;28;20223;-71
2023/04/12 08:00:23;;;;;;;4.57;2.43;;;9.20;99.90;;;;;;8261030;28;20204;-70
2023/04/12 08:04:26;;;;;;;2.60;1.53;;;9.40;99.90;;;;;;8257396;28;20304;-70
2023/04/12 08:08:30;;;;;;;2.60;1.80;;;9.50;99.90;;;;;;8258704;28;20198;-70
2023/04/12 08:12:31;;;;;;;4.60;1.93;;;9.70;99.90;;;;;;8269507;28;20244;-71
2023/04/12 08:16:32;;;;;;;5.10;2.13;;;9.90;99.90;;;;;;8254154;28;20197;-71
2023/04/12 08:20:33;;;;;;;6.13;1.90;;;10.20;99.90;;;;;;8260373;28;20221;-73
2023/04/12 08:24:34;;;;;;;2.10;1.40;;;10.50;32.80;;;;;;8263040;28;20195;-70
2023/04/12 08:28:51;;;;;;;5.20;1.77;;;10.40;28.50;;;;;;8259932;28;20194;-70
2023/04/12 08:33:17;;;;;;;2.10;1.40;;;10.60;66.40;;;;;;8270665;28;20198;-69
2023/04/12 08:37:22;;;;;;;2.83;1.20;;;11.00;40.30;;;;;;8255912;28;20211;-69
2023/04/12 08:41:23;;;;;;;5.13;2.00;;;11.20;5.40;;;;;;8250812;28;20227;-71
2023/04/12 08:45:29;;;;;;;2.17;1.33;;;11.30;3.60;;;;;;8253042;28;20257;-70
2023/04/12 08:49:31;;;;;;;3.47;1.37;;;11.40;1.00;;;;;;8255196;28;20194;-72
2023/04/12 08:53:32;;;;;;;2.83;1.17;;;11.40;1.00;;;;;;8252884;28;20187;-71
2023/04/12 08:57:40;;;;;;;3.40;1.23;;;11.60;1.00;;;;;;8249435;28;20227;-70
2023/04/12 09:01:56;;;;;;;5.80;1.33;;;11.50;1.00;;;;;;8252620;28;20199;-71
2023/04/12 09:06:02;;;;;;;3.37;1.30;;;11.60;1.00;;;;;;8257706;28;20221;-72
2023/04/12 09:10:07;;;;;;;2.57;1.37;;;11.80;1.00;;;;;;8261952;28;20243;-72
2023/04/12 09:14:27;;;;;;;4.67;1.40;;;11.70;1.00;;;;;;8262969;28;20191;-71
2023/04/12 09:18:28;;;;;;;5.43;1.03;;;11.80;1.00;;;;;;8264142;28;20188;-70
2023/04/12 09:22:34;;;;;;;2.47;1.00;;;12.10;1.00;;;;;;8261645;28;20195;-72
2023/04/12 09:26:39;;;;;;;3.50;1.00;;;12.30;1.00;;;;;;8265099;28;20220;-72
2023/04/12 09:30:43;;;;;;;1.93;0.93;;;12.40;1.00;;;;;;8259133;28;20223;-72
2023/04/12 09:34:55;;;;;;;1.60;0.70;;;12.80;1.00;;;;;;8280852;28;20184;-72
2023/04/12 09:39:00;;;;;;;1.10;0.70;;;13.10;1.00;;;;;;8264035;28;20258;-72
2023/04/12 09:43:02;;;;;;;2.20;1.00;;;13.20;1.00;;;;;;8257721;28;20183;-73
2023/04/12 09:47:04;;;;;;;1.87;1.10;;;13.30;1.00;;;;;;8258057;28;20223;-70
2023/04/12 09:51:22;;;;;;;1.87;0.97;;;13.30;1.00;;;;;;8250813;28;20188;-70
2023/04/12 09:55:33;;;;;;;3.10;1.30;;;13.50;1.00;;;;;;8249744;28;20218;-68
2023/04/12 09:59:41;;;;;;;1.67;1.10;;;13.70;1.00;;;;;;8250684;28;20218;-69
2023/04/12 10:03:42;;;;;;;2.57;1.13;;;13.70;1.00;;;;;;8253580;28;20281;-69
2023/04/12 10:07:52;;;;;;;2.00;1.00;;;13.70;1.00;;;;;;8269111;28;20211;-71
2023/04/12 10:11:53;;;;;;;1.63;0.93;;;14.00;1.00;;;;;;8262207;28;20252;-69
2023/04/12 10:15:59;;;;;;;4.27;1.03;;;14.50;1.00;;;;;;8281729;28;20227;-68
2023/04/12 10:20:04;;;;;;;1.83;1.07;;;14.60;1.00;;;;;;8288999;28;20194;-68
2023/04/12 10:24:06;;;;;;;2.17;0.80;;;14.40;1.00;;;;;;8287859;28;20191;-71
2023/04/12 10:28:17;;;;;;;1.97;0.80;;;14.30;1.00;;;;;;8282222;28;20226;-69
2023/04/12 10:32:25;;;;;;;3.27;0.90;;;14.00;1.00;;;;;;8279367;28;20244;-70
2023/04/12 10:37:03;;;;;;;3.10;1.10;;;14.10;1.00;;;;;;8289296;28;20194;-70
2023/04/12 10:41:14;;;;;;;1.03;0.77;;;13.70;1.00;;;;;;8254562;28;20203;-71
2023/04/12 10:45:44;;;;;;;1.97;0.80;;;13.80;1.00;;;;;;8289398;28;20228;-72
2023/04/12 10:50:25;;;;;;;2.13;1.33;;;14.00;1.00;;;;;;8275603;28;20194;-70
2023/04/12 10:54:31;;;;;;;5.50;1.37;;;14.00;1.00;;;;;;8226090;28;20198;-69
2023/04/12 10:58:47;;;;;;;2.20;0.90;;;14.10;1.00;;;;;;8286431;28;20211;-69
2023/04/12 11:03:10;;;;;;;5.63;1.00;;;14.10;1.00;;;;;;8291238;28;20262;-70
2023/04/12 11:07:17;;;;;;;3.00;1.27;;;14.40;1.00;;;;;;8291850;28;20214;-70
2023/04/12 11:11:26;;;;;;;3.40;0.97;;;14.80;1.00;;;;;;8291499;28;20302;-70
2023/04/12 11:15:39;;;;;;;2.07;0.70;;;15.00;1.00;;;;;;8295869;28;20202;-68
2023/04/12 11:19:45;;;;;;;2.23;0.70;;;15.00;1.00;;;;;;8288135;28;20195;-69
2023/04/12 11:23:59;;;;;;;2.23;0.83;;;14.90;1.00;;;;;;8289646;28;20198;-70
2023/04/12 11:28:00;;;;;;;1.03;0.53;;;14.80;1.00;;;;;;8293456;28;20218;-70
2023/04/12 11:32:13;;;;;;;2.33;1.00;;;14.80;1.00;;;;;;8288160;28;20198;-70
2023/04/12 11:36:14;;;;;;;2.57;1.20;;;14.90;1.00;;;;;;8291271;28;20187;-71
2023/04/12 11:40:22;;;;;;;1.57;0.87;;;15.00;1.00;;;;;;8293010;28;20195;-71
2023/04/12 11:44:23;;;;;;;2.53;0.90;;;14.90;1.00;;;;;;8288662;28;20193;-68
2023/04/12 11:48:28;;;;;;;2.30;0.97;;;14.80;1.00;;;;;;8291640;28;20222;-68
2023/04/12 11:52:32;;;;;;;2.13;0.90;;;14.80;1.00;;;;;;8284104;28;20202;-70
2023/04/12 11:56:33;;;;;;;4.30;1.33;;;14.90;1.00;;;;;;8284696;28;20238;-70
2023/04/12 12:00:35;;;;;;;1.60;0.77;;;15.10;1.00;;;;;;8286118;28;20222;-69
2023/04/12 12:04:36;;;;;;;1.93;0.80;;;15.10;1.00;;;;;;8290432;28;20194;-68
2023/04/12 12:08:38;;;;;;;1.40;0.80;;;15.20;1.00;;;;;;8287200;28;20194;-70
2023/04/12 12:12:41;;;;;;;1.87;1.10;;;15.40;1.00;;;;;;8284106;28;20383;-67
2023/04/12 12:16:50;;;;;;;2.73;0.83;;;15.40;1.00;;;;;;8287941;28;20209;-71
2023/04/12 12:20:52;;;;;;;2.30;1.17;;;15.40;1.00;;;;;;8292403;28;20194;-70
2023/04/12 12:25:02;;;;;;;3.23;0.83;;;15.40;1.00;;;;;;8247339;28;20304;-72
2023/04/12 12:29:04;;;;;;;1.50;0.93;;;15.60;1.00;;;;;;8288310;28;20270;-70
2023/04/12 12:33:05;;;;;;;3.53;1.20;;;15.70;1.00;;;;;;8284118;28;20183;-66
2023/04/12 12:37:27;;;;;;;3.63;1.13;;;15.50;1.00;;;;;;8276853;28;20206;-68
2023/04/12 12:41:32;;;;;;;3.93;1.60;;;15.30;1.00;;;;;;8282630;28;20253;-70
2023/04/12 12:45:33;;;;;;;3.07;1.20;;;15.30;1.00;;;;;;8281364;28;20237;-68
2023/04/12 12:49:34;;;;;;;3.67;1.37;;;15.40;1.00;;;;;;8268617;28;20257;-71
2023/04/12 12:53:37;;;;;;;3.13;1.13;;;15.60;1.00;;;;;;8287550;28;20286;-68
2023/04/12 12:57:38;;;;;;;1.87;1.00;;;15.60;1.00;;;;;;8281672;28;20214;-68
2023/04/12 13:01:39;;;;;;;3.17;1.27;;;15.60;1.00;;;;;;8284697;28;20190;-69
2023/04/12 13:05:42;;;;;;;5.13;1.20;;;15.60;1.00;;;;;;8284452;28;20317;-68
2023/04/12 13:09:47;;;;;;;2.40;0.87;;;15.70;1.00;;;;;;8282808;28;20281;-68
2023/04/12 13:13:48;;;;;;;2.67;1.10;;;15.70;1.00;;;;;;8302429;28;20312;-70
2023/04/12 13:17:53;;;;;;;1.70;1.03;;;15.60;1.00;;;;;;8298398;28;20194;-68
2023/04/12 13:22:01;;;;;;;2.43;1.20;;;15.50;1.00;;;;;;8294974;28;20191;-67
2023/04/12 13:26:02;;;;;;;5.10;1.03;;;15.50;1.00;;;;;;8294218;28;20247;-66
2023/04/12 13:30:05;;;;;;;1.83;1.00;;;15.50;1.00;;;;;;8296758;28;20234;-68
2023/04/12 13:34:09;;;;;;;4.27;1.20;;;15.70;1.00;;;;;;8296707;28;20187;-71
2023/04/12 13:38:12;;;;;;;3.73;1.17;;;16.10;1.00;;;;;;8300389;28;20198;-71
2023/04/12 13:42:23;;;;;;;2.10;1.10;;;16.10;1.00;;;;;;8297694;28;20242;-69
2023/04/12 13:46:24;;;;;;;6.23;1.53;;;16.00;1.00;;;;;;8279232;28;20215;-69
2023/04/12 13:50:26;;;;;;;3.70;1.30;;;15.90;1.00;;;;;;8301635;28;20186;-68
2023/04/12 13:54:27;;;;;;;5.30;1.87;;;15.90;1.00;;;;;;8289758;28;20280;-69
2023/04/12 13:58:29;;;;;;;2.60;1.50;;;15.90;1.00;;;;;;8288188;28;20328;-66
2023/04/12 14:02:30;;;;;;;2.97;1.60;;;15.80;1.00;;;;;;8281535;28;20287;-68
2023/04/12 14:06:35;;;;;;;2.10;1.33;;;15.50;1.00;;;;;;8283211;28;20210;-67
2023/04/12 14:10:36;;;;;;;3.03;1.40;;;15.30;1.00;;;;;;8285536;28;20183;-65
2023/04/12 14:14:36;;;;;;;3.47;1.33;;;15.20;1.00;;;;;;8273608;28;20261;-68
2023/04/12 14:18:38;;;;;;;2.03;1.20;;;15.10;1.00;;;;;;8284693;28;20194;-67
2023/04/12 14:22:39;;;;;;;1.43;1.13;;;15.00;1.00;;;;;;8283499;28;20206;-67
2023/04/12 14:26:40;;;;;;;5.97;1.37;;;15.00;1.00;;;;;;8284871;28;20219;-68
2023/04/12 14:30:45;;;;;;;4.40;2.00;;;15.00;1.00;;;;;;8274432;28;20282;-67
2023/04/12 14:34:49;;;;;;;5.77;1.63;;;15.00;1.00;;;;;;8286170;28;20195;-66
2023/04/12 14:38:50;;;;;;;1.60;1.30;;;14.90;1.00;;;;;;8280182;28;20221;-67
2023/04/12 14:42:51;;;;;;;4.40;1.63;;;14.80;1.00;;;;;;8282993;28;20174;-68
2023/04/12 14:46:52;;;;;;;2.80;1.70;;;14.80;1.00;;;;;;8282528;28;20206;-67
2023/04/12 14:50:54;;;;;;;5.10;2.00;;;14.70;1.00;;;;;;8289479;28;20186;-69
2023/04/12 14:54:55;;;;;;;2.80;1.37;;;14.80;1.00;;;;;;8283807;28;20361;-68
2023/04/12 14:58:59;;;;;;;3.20;1.70;;;14.70;1.00;;;;;;8279328;28;20202;-68
2023/04/12 15:03:00;;;;;;;5.30;2.10;;;14.70;1.00;;;;;;8288195;28;20191;-68
2023/04/12 15:07:04;;;;;;;3.67;1.70;;;14.70;1.00;;;;;;8284132;28;20209;-69
2023/04/12 15:11:08;;;;;;;4.00;1.47;;;14.60;1.00;;;;;;8282132;28;20182;-68
2023/04/12 15:15:10;;;;;;;2.33;1.70;;;14.50;1.00;;;;;;8284210;28;20190;-67
2023/04/12 15:19:13;;;;;;;2.90;2.10;;;14.50;1.00;;;;;;8285680;28;20278;-67
2023/04/12 15:23:14;;;;;;;3.90;1.77;;;14.50;1.00;;;;;;8288426;28;20225;-68
2023/04/12 15:27:15;;;;;;;5.83;1.67;;;14.60;1.00;;;;;;8289881;28;20225;-66
2023/04/12 15:31:17;;;;;;;5.57;2.50;;;14.60;1.00;;;;;;8291745;28;20190;-66
2023/04/12 15:35:18;;;;;;;3.73;1.60;;;14.50;1.00;;;;;;8294399;28;20278;-67
2023/04/12 15:39:23;;;;;;;15.40;3.40;;;14.50;1.00;;;;;;8293067;28;20187;-68
2023/04/12 15:43:28;;;;;;;2.97;1.63;;;14.50;1.00;;;;;;8296083;28;20183;-67
2023/04/12 15:47:35;;;;;;;3.40;1.60;;;14.60;1.00;;;;;;8293685;28;20214;-68
2023/04/12 15:51:57;;;;;;;8.27;2.73;;;14.80;1.00;;;;;;8289160;28;20187;-68
2023/04/12 15:55:58;;;;;;;4.13;1.70;;;15.00;1.00;;;;;;8287179;28;20219;-69
2023/04/12 16:00:11;;;;;;;4.53;1.90;;;15.10;1.00;;;;;;8290401;28;20238;-69
2023/04/12 16:04:12;;;;;;;3.40;1.73;;;15.00;1.00;;;;;;8288334;28;20193;-68
2023/04/12 16:08:19;;;;;;;4.13;1.93;;;14.90;1.00;;;;;;8263214;28;20226;-68
2023/04/12 16:12:23;;;;;;;2.73;1.50;;;14.80;1.00;;;;;;8288338;28;20289;-69
2023/04/12 16:16:27;;;;;;;3.47;1.93;;;14.70;1.00;;;;;;8293875;28;20202;-69
2023/04/12 16:20:35;;;;;;;2.70;1.60;;;14.70;1.00;;;;;;8295105;28;20206;-68
2023/04/12 16:24:36;;;;;;;3.30;1.43;;;14.70;1.00;;;;;;8292732;28;20201;-67
2023/04/12 16:28:44;;;;;;;3.93;1.73;;;14.80;1.00;;;;;;8299831;28;20211;-68
2023/04/12 16:32:52;;;;;;;3.00;2.00;;;14.80;1.00;;;;;;8293632;28;20179;-68
2023/04/12 16:36:53;;;;;;;3.97;1.80;;;14.90;1.00;;;;;;8311832;28;20190;-68
2023/04/12 16:40:54;;;;;;;2.70;1.57;;;14.90;1.00;;;;;;8298350;28;20214;-68
2023/04/12 16:44:55;;;;;;;2.13;1.30;;;14.70;1.00;;;;;;8295168;28;20191;-67
2023/04/12 16:49:10;;;;;;;2.77;1.00;;;14.60;1.00;;;;;;8300797;28;20295;-68
2023/04/12 16:53:12;;;;;;;1.93;1.03;;;14.40;1.00;;;;;;8303164;28;20214;-69
2023/04/12 16:57:13;;;;;;;2.40;1.00;;;14.40;1.00;;;;;;8295966;28;20250;-68
2023/04/12 17:01:15;;;;;;;2.60;1.17;;;14.30;1.00;;;;;;8296177;28;20186;-68
2023/04/12 17:05:16;;;;;;;2.20;1.10;;;14.10;1.00;;;;;;8301871;28;20198;-68
2023/04/12 17:09:17;;;;;;;2.00;1.10;;;13.80;1.00;;;;;;8293551;28;20241;-68
2023/04/12 17:13:18;;;;;;;2.47;1.30;;;13.50;1.00;;;;;;8295149;28;20183;-68
2023/04/12 17:17:20;;;;;;;1.93;1.20;;;13.20;1.00;;;;;;8287279;28;20247;-68
2023/04/12 17:21:21;;;;;;;4.10;2.00;;;12.90;1.00;;;;;;8301972;28;20250;-69
2023/04/12 17:25:22;;;;;;;2.70;1.50;;;12.70;1.00;;;;;;8302221;28;20205;-69
2023/04/12 17:29:23;;;;;;;4.20;1.87;;;12.50;1.00;;;;;;8313893;28;20301;-68
2023/04/12 17:33:25;;;;;;;3.63;1.90;;;12.40;1.00;;;;;;8297339;28;20204;-68
2023/04/12 17:37:29;;;;;;;4.43;1.77;;;12.40;1.00;;;;;;8297689;28;20188;-68
2023/04/12 17:41:32;;;;;;;3.50;1.80;;;12.30;1.00;;;;;;8290748;28;20316;-69
2023/04/12 17:45:42;;;;;;;3.00;1.83;;;12.20;1.00;;;;;;8294345;28;20245;-68
2023/04/12 17:49:45;;;;;;;4.30;1.83;;;12.10;1.00;;;;;;8293617;28;20183;-69
2023/04/12 17:53:46;;;;;;;4.20;2.10;;;11.90;1.00;;;;;;8284987;28;20200;-69
2023/04/12 17:57:51;;;;;;;4.37;2.40;;;11.80;1.00;;;;;;8277779;28;20349;-68
2023/04/12 18:01:53;;;;;;;5.23;3.00;;;11.70;1.00;;;;;;8301496;28;20270;-70
2023/04/12 18:06:01;;;;;;;6.40;3.80;;;11.60;1.00;;;;;;8276639;28;20304;-68
2023/04/12 18:10:04;;;;;;;7.37;4.53;;;11.50;1.00;;;;;;8307020;28;20181;-68
2023/04/12 18:14:06;;;;;;;5.97;4.13;;;11.30;1.00;;;;;;8292954;28;20183;-72
2023/04/12 18:18:07;;;;;;;6.90;4.03;;;11.20;1.00;;;;;;8297288;28;20234;-70
2023/04/12 18:22:08;;;;;;;5.83;3.77;;;11.10;1.00;;;;;;8294441;28;20201;-70
2023/04/12 18:26:09;;;;;;;7.30;4.20;;;11.00;1.00;;;;;;8288541;28;20202;-69
2023/04/12 18:30:11;;;;;;;6.50;4.10;;;10.90;1.00;;;;;;8283093;28;20316;-65
2023/04/12 18:34:12;;;;;;;7.23;3.70;;;10.90;1.00;;;;;;8300435;28;20209;-65
2023/04/12 18:38:13;;;;;;;8.37;4.37;;;10.80;1.00;;;;;;8286624;28;20215;-65
2023/04/12 18:42:15;;;;;;;8.47;4.13;;;10.80;1.00;;;;;;8276645;28;20182;-65
2023/04/12 18:46:17;;;;;;;6.13;3.17;;;10.80;1.00;;;;;;8288430;28;20321;-66
2023/04/12 18:50:18;;;;;;;5.63;2.97;;;10.70;1.00;;;;;;8292124;28;20186;-65
2023/04/12 18:54:21;;;;;;;5.40;3.23;;;10.70;1.00;;;;;;8291504;28;20194;-66
2023/04/12 18:58:23;;;;;;;4.37;2.57;;;10.60;1.00;;;;;;8267132;28;20227;-71
2023/04/12 19:02:24;;;;;;;4.50;2.57;;;10.60;1.00;;;;;;8266885;28;20286;-70
2023/04/12 19:06:31;;;;;;;5.20;2.90;;;10.50;1.00;;;;;;8266102;28;20253;-71
2023/04/12 19:10:32;;;;;;;6.23;3.10;;;10.50;1.00;;;;;;8268319;28;20195;-71
2023/04/12 19:14:33;;;;;;;6.40;3.10;;;10.50;1.00;;;;;;8268336;28;20187;-71
2023/04/12 19:18:34;;;;;;;4.93;3.17;;;10.50;1.00;;;;;;8265223;28;20191;-71
2023/04/12 19:22:36;;;;;;;6.07;3.07;;;10.50;1.00;;;;;;8272445;28;20262;-68
2023/04/12 19:26:44;;;;;;;6.50;3.33;;;10.50;1.00;;;;;;8264610;28;20266;-71
2023/04/12 19:30:52;;;;;;;7.87;4.63;;;10.50;1.00;;;;;;8273641;28;20233;-71
2023/04/12 19:34:55;;;;;;;10.00;5.60;;;10.50;1.00;;;;;;8252667;28;20194;-70
2023/04/12 19:39:00;;;;;;;10.93;5.43;;;10.50;1.00;;;;;;8263498;28;20248;-70
2023/04/12 19:43:06;;;;;;;7.43;4.70;;;10.50;1.00;;;;;;8267751;28;20281;-70
2023/04/12 19:47:09;;;;;;;11.60;5.70;;;10.50;1.00;;;;;;8266057;28;20219;-67
2023/04/12 19:51:10;;;;;;;13.87;6.00;;;10.40;1.00;;;;;;8266495;28;20183;-71
2023/04/12 19:55:14;;;;;;;10.07;5.77;;;10.50;1.00;;;;;;8266336;28;20221;-72
2023/04/12 19:59:16;;;;;;;10.80;6.03;;;10.50;1.00;;;;;;8242230;28;20247;-67
2023/04/12 20:03:17;;;;;;;9.27;5.37;;;10.40;1.00;;;;;;8260197;28;20195;-65
2023/04/12 20:07:21;;;;;;;8.20;5.10;;;10.40;1.00;;;;;;8265966;28;20213;-70
2023/04/12 20:11:23;;;;;;;10.30;5.37;;;10.40;1.00;;;;;;8261929;28;20190;-70
2023/04/12 20:15:23;;;;;;;6.90;5.03;;;10.30;1.00;;;;;;8255086;28;20240;-71
2023/04/12 20:19:26;;;;;;;9.23;5.80;;;10.30;1.00;;;;;;8262301;28;20194;-70
2023/04/12 20:23:27;;;;;;;10.47;5.90;;;10.30;1.00;;;;;;8259874;28;20191;-70
2023/04/12 20:27:28;;;;;;;10.63;6.27;;;10.20;1.00;;;;;;8264509;28;20221;-70
2023/04/12 20:31:31;;;;;;;8.90;5.53;;;10.20;5.40;;;;;;8263910;28;20186;-70
2023/04/12 20:35:32;;;;;;;8.97;6.10;;;10.20;22.80;;;;;;8264131;28;20200;-70
2023/04/12 20:39:34;;;;;;;9.27;5.60;;;10.10;44.60;;;;;;8253304;28;20189;-70
2023/04/12 20:43:46;;;;;;;7.73;5.97;;;10.10;62.90;;;;;;8251175;28;20259;-69
2023/04/12 20:47:47;;;;;;;8.50;6.03;;;10.00;83.30;;;;;;8239929;28;20218;-67
2023/04/12 20:51:49;;;;;;;8.53;5.53;;;10.00;96.90;;;;;;8250303;28;20186;-69
2023/04/12 20:55:53;;;;;;;11.10;6.07;;;10.00;98.40;;;;;;8238289;28;20225;-69
2023/04/12 20:59:54;;;;;;;9.63;6.73;;;9.90;99.90;;;;;;8255806;28;20194;-68
2023/04/12 21:03:58;;;;;;;12.97;7.27;;;9.90;99.90;;;;;;8266996;28;20244;-71
2023/04/12 21:07:59;;;;;;;12.00;7.03;;;9.90;99.90;;;;;;8248686;28;20222;-71
2023/04/12 21:12:06;;;;;;;7.93;6.80;;;9.80;99.90;;;;;;8254360;28;20182;-68
2023/04/12 21:16:08;;;;;;;10.20;6.40;;;9.80;99.90;;;;;;8254025;28;20196;-70
2023/04/12 21:20:12;;;;;;;10.03;6.53;;;9.80;99.90;;;;;;8257288;28;20222;-70